SAZM/MDD METAR and TAF weather

Enter ICAO airport designator
Station Type Date Time Source
SAZM METAR 2021/09/28 16:00 UTC NOAA

SAZM 281600Z 07008KT CAVOK 14/06 Q1024


Station Type Date Time Source
SAZM Decoded METAR 2021/09/28 16:00 UTC NOAA

Mar Del Plata Aerodrome, Argentina (SAZM) 37-56S 057-35W 21M
Sep 28, 2021 - 12:00 PM EDT / 2021.09.28 1600 UTC
Wind: from the ENE (070 degrees) at 9 MPH (8 KT):0
Visibility: greater than 7 mile(s):0
Temperature: 57 F (14 C)
Dew Point: 42 F (6 C)
Relative Humidity: 58%
Pressure (altimeter): 30.24 in. Hg (1024 hPa)
ob: SAZM 281600Z 07008KT CAVOK 14/06 Q1024
cycle: 16

Station Type Date Time Source
SAZM TAF 2021/09/28 12:00 UTC NOAA

TAF SAZM 281100Z 2812/2912 07010KT CAVOK TX15/2818Z TN05/2910Z
BECMG 2902/2905 36005KT
BECMG 2010/2912 02010KT 9999 SCT030

Example: see airport list